Hlavní strana
METAR-TAF:

METAR-TAF

Letiště :

Los Llanos

Albacete, Španělsko

zeměpisná šířka: 38-57N, zeměpisná délka: 001-51W, výška: 702 m

Aktuální stav počasí

Zpráva byla vytvořena před 50 minutami, v 21:00 UTC
Jihojihovýchodní vítr 9 kt
Teplota 9°C
Vlhkost vzduchu 81%
Tlak 1019 hPa
Viditelnost 10 km a více
Žádná oblačnost pod 1500 m, nevyskytují se cumulonimby.

METAR: LEAB 042100Z 15009KT CAVOK 09/06 Q1019 NOSIG

Čas: 23:50 (21:50 UTC)

Předpověď počasí

Zpráva byla vytvořena před 1 hodinou a 50 minutami, v 20:00 UTC
Předpověď platná od 04 v 21 UTC do 05 v 06 UTC
Jihojihovýchodní vítr 8 kt
Viditelnost 10 km a více
Žádná oblačnost pod 1500 m, nevyskytují se cumulonimby.
Pravděpodobnost 30% :
Dočasný
od 05 v 01 UTC do 05 v 06 UTC
Oblačno až skoro zataženo ve výšce 1000 ft

TAF: LEAB 042000Z 0421/0506 15008KT CAVOK PROB30 TEMPO 0501/0506 BKN010

Stav a předpovědi počasí z více než 4 000 letišť (zprávy METAR a TAF).

Červené a žluté tečky na mapě představují dostupné meteorologické stanice.

Když kurzor umístíte na tečku, zobrazí se název stanice.

Pak kliknutím zobrazíte stav a předpověď počasí.

Chcete-li změnit mapu, kliknutím na zelené tlačítko se znaménkem +mapu přiblížíte, kliknutím na zelené tlačítko se znaménkem – mapu oddálíte a kliknutím na zelené šipky přejdete na sousední mapy.


METAR-TAF: